sensor_id;sensor_type;location;lat;lon;timestamp;pressure;altitude;pressure_sealevel;temperature;humidity
51496;BME280;37572;52.094;4.870;2022-07-06T00:01:46;102583.72;;;12.78;84.85
51496;BME280;37572;52.094;4.870;2022-07-06T00:04:12;102592.50;;;12.80;84.84
51496;BME280;37572;52.094;4.870;2022-07-06T00:06:37;102598.63;;;12.74;85.30
51496;BME280;37572;52.094;4.870;2022-07-06T00:09:03;102590.88;;;12.71;85.73
51496;BME280;37572;52.094;4.870;2022-07-06T00:11:29;102593.25;;;12.66;86.25
51496;BME280;37572;52.094;4.870;2022-07-06T00:13:55;102591.09;;;12.61;86.24
51496;BME280;37572;52.094;4.870;2022-07-06T00:16:23;102580.09;;;12.63;85.87
51496;BME280;37572;52.094;4.870;2022-07-06T00:18:48;102592.78;;;12.62;86.09
51496;BME280;37572;52.094;4.870;2022-07-06T00:21:14;102577.75;;;12.60;86.02
51496;BME280;37572;52.094;4.870;2022-07-06T00:23:39;102588.56;;;12.60;86.01
51496;BME280;37572;52.094;4.870;2022-07-06T00:26:05;102592.31;;;12.59;85.85
51496;BME280;37572;52.094;4.870;2022-07-06T00:28:30;102586.91;;;12.59;85.92
51496;BME280;37572;52.094;4.870;2022-07-06T00:30:55;102581.19;;;12.54;85.91
51496;BME280;37572;52.094;4.870;2022-07-06T00:33:21;102582.56;;;12.49;86.52
51496;BME280;37572;52.094;4.870;2022-07-06T00:35:46;102575.50;;;12.48;87.11
51496;BME280;37572;52.094;4.870;2022-07-06T00:38:12;102578.72;;;12.44;86.70
51496;BME280;37572;52.094;4.870;2022-07-06T00:40:37;102579.09;;;12.41;87.33
51496;BME280;37572;52.094;4.870;2022-07-06T00:43:02;102582.97;;;12.38;87.62
51496;BME280;37572;52.094;4.870;2022-07-06T00:45:28;102577.75;;;12.37;87.58
51496;BME280;37572;52.094;4.870;2022-07-06T00:47:53;102579.63;;;12.36;88.03
51496;BME280;37572;52.094;4.870;2022-07-06T00:50:19;102585.03;;;12.36;88.17
51496;BME280;37572;52.094;4.870;2022-07-06T00:53:00;102582.97;;;12.38;88.18
51496;BME280;37572;52.094;4.870;2022-07-06T00:55:28;102581.81;;;12.32;88.01
51496;BME280;37572;52.094;4.870;2022-07-06T00:57:54;102582.34;;;12.28;88.35
51496;BME280;37572;52.094;4.870;2022-07-06T01:00:22;102585.41;;;12.25;88.37
51496;BME280;37572;52.094;4.870;2022-07-06T01:02:48;102591.34;;;12.20;88.59
51496;BME280;37572;52.094;4.870;2022-07-06T01:05:14;102584.47;;;12.09;88.69
51496;BME280;37572;52.094;4.870;2022-07-06T01:07:42;102588.75;;;12.04;89.42
51496;BME280;37572;52.094;4.870;2022-07-06T01:10:09;102589.94;;;12.01;90.20
51496;BME280;37572;52.094;4.870;2022-07-06T01:12:36;102580.31;;;11.99;90.61
51496;BME280;37572;52.094;4.870;2022-07-06T01:15:15;102580.81;;;12.02;91.02
51496;BME280;37572;52.094;4.870;2022-07-06T01:17:42;102588.56;;;12.05;90.78
51496;BME280;37572;52.094;4.870;2022-07-06T01:20:24;102578.59;;;12.06;90.53
51496;BME280;37572;52.094;4.870;2022-07-06T01:22:51;102580.28;;;12.07;90.64
51496;BME280;37572;52.094;4.870;2022-07-06T01:25:17;102576.38;;;12.09;90.35
51496;BME280;37572;52.094;4.870;2022-07-06T01:27:43;102576.72;;;12.15;90.23
51496;BME280;37572;52.094;4.870;2022-07-06T01:30:14;102574.66;;;12.17;89.71
51496;BME280;37572;52.094;4.870;2022-07-06T01:32:40;102578.56;;;12.14;89.34
51496;BME280;37572;52.094;4.870;2022-07-06T01:35:09;102573.31;;;12.12;89.28
51496;BME280;37572;52.094;4.870;2022-07-06T01:37:35;102575.03;;;12.13;89.61
51496;BME280;37572;52.094;4.870;2022-07-06T01:40:02;102578.56;;;12.14;89.50
51496;BME280;37572;52.094;4.870;2022-07-06T01:42:28;102583.78;;;12.16;89.26
51496;BME280;37572;52.094;4.870;2022-07-06T01:44:54;102577.72;;;12.13;89.77
51496;BME280;37572;52.094;4.870;2022-07-06T01:47:19;102580.59;;;12.12;89.83
51496;BME280;37572;52.094;4.870;2022-07-06T01:49:45;102576.19;;;12.11;90.20
51496;BME280;37572;52.094;4.870;2022-07-06T01:52:10;102579.75;;;12.11;90.14
51496;BME280;37572;52.094;4.870;2022-07-06T01:54:35;102576.03;;;12.12;90.14
51496;BME280;37572;52.094;4.870;2022-07-06T01:57:01;102565.41;;;12.11;90.18
51496;BME280;37572;52.094;4.870;2022-07-06T01:59:26;102566.63;;;12.08;90.13
51496;BME280;37572;52.094;4.870;2022-07-06T02:01:51;102570.31;;;12.07;90.27
51496;BME280;37572;52.094;4.870;2022-07-06T02:04:17;102573.03;;;12.07;90.73
51496;BME280;37572;52.094;4.870;2022-07-06T02:06:42;102571.03;;;12.01;90.64
51496;BME280;37572;52.094;4.870;2022-07-06T02:09:07;102565.16;;;11.98;91.37
51496;BME280;37572;52.094;4.870;2022-07-06T02:11:33;102571.38;;;11.98;91.51
51496;BME280;37572;52.094;4.870;2022-07-06T02:13:58;102568.69;;;11.98;92.11
51496;BME280;37572;52.094;4.870;2022-07-06T02:16:23;102567.84;;;11.98;92.18
51496;BME280;37572;52.094;4.870;2022-07-06T02:18:49;102564.94;;;12.07;92.14
51496;BME280;37572;52.094;4.870;2022-07-06T02:21:14;102568.09;;;12.11;91.74
51496;BME280;37572;52.094;4.870;2022-07-06T02:23:39;102569.63;;;12.68;89.14
51496;BME280;37572;52.094;4.870;2022-07-06T02:26:04;102565.28;;;12.82;88.58
51496;BME280;37572;52.094;4.870;2022-07-06T02:28:30;102570.25;;;12.93;87.79
51496;BME280;37572;52.094;4.870;2022-07-06T02:30:55;102574.56;;;13.02;87.59
51496;BME280;37572;52.094;4.870;2022-07-06T02:33:21;102578.22;;;13.10;87.47
51496;BME280;37572;52.094;4.870;2022-07-06T02:35:46;102578.13;;;13.18;87.07
51496;BME280;37572;52.094;4.870;2022-07-06T02:38:11;102575.38;;;13.26;86.32
51496;BME280;37572;52.094;4.870;2022-07-06T02:40:37;102570.03;;;13.33;86.21
51496;BME280;37572;52.094;4.870;2022-07-06T02:43:03;102573.91;;;13.38;85.91
51496;BME280;37572;52.094;4.870;2022-07-06T02:45:28;102579.97;;;13.41;86.06
51496;BME280;37572;52.094;4.870;2022-07-06T02:47:54;102575.19;;;13.43;85.46
51496;BME280;37572;52.094;4.870;2022-07-06T02:50:21;102582.47;;;13.04;86.89
51496;BME280;37572;52.094;4.870;2022-07-06T02:52:46;102574.81;;;12.93;88.22
51496;BME280;37572;52.094;4.870;2022-07-06T02:55:12;102570.75;;;13.12;87.41
51496;BME280;37572;52.094;4.870;2022-07-06T02:57:37;102581.66;;;13.42;86.61
51496;BME280;37572;52.094;4.870;2022-07-06T03:00:03;102580.72;;;13.49;86.26
51496;BME280;37572;52.094;4.870;2022-07-06T03:02:29;102575.78;;;13.53;86.24
51496;BME280;37572;52.094;4.870;2022-07-06T03:04:55;102586.03;;;13.58;86.28
51496;BME280;37572;52.094;4.870;2022-07-06T03:07:21;102585.66;;;13.61;86.23
51496;BME280;37572;52.094;4.870;2022-07-06T03:09:47;102585.66;;;13.61;86.23
51496;BME280;37572;52.094;4.870;2022-07-06T03:12:12;102576.03;;;13.58;86.93
51496;BME280;37572;52.094;4.870;2022-07-06T03:14:37;102577.91;;;13.58;87.18
51496;BME280;37572;52.094;4.870;2022-07-06T03:17:03;102579.50;;;13.52;86.94
51496;BME280;37572;52.094;4.870;2022-07-06T03:19:28;102586.97;;;13.50;86.92
51496;BME280;37572;52.094;4.870;2022-07-06T03:21:53;102584.19;;;13.43;87.33
51496;BME280;37572;52.094;4.870;2022-07-06T03:24:18;102588.09;;;13.41;87.43
51496;BME280;37572;52.094;4.870;2022-07-06T03:26:44;102591.63;;;13.41;87.88
51496;BME280;37572;52.094;4.870;2022-07-06T03:29:09;102587.91;;;13.42;88.13
51496;BME280;37572;52.094;4.870;2022-07-06T03:31:34;102589.22;;;13.46;88.25
51496;BME280;37572;52.094;4.870;2022-07-06T03:34:00;102578.84;;;13.50;88.02
51496;BME280;37572;52.094;4.870;2022-07-06T03:36:25;102580.53;;;13.51;87.96
51496;BME280;37572;52.094;4.870;2022-07-06T03:38:50;102577.91;;;13.43;87.53
51496;BME280;37572;52.094;4.870;2022-07-06T03:41:16;102580.91;;;13.48;87.24
51496;BME280;37572;52.094;4.870;2022-07-06T03:43:41;102582.75;;;13.47;87.26
51496;BME280;37572;52.094;4.870;2022-07-06T03:46:06;102577.84;;;13.51;87.30
51496;BME280;37572;52.094;4.870;2022-07-06T03:48:32;102578.47;;;13.53;87.06
51496;BME280;37572;52.094;4.870;2022-07-06T03:50:57;102582.50;;;13.57;86.71
51496;BME280;37572;52.094;4.870;2022-07-06T03:53:22;102584.47;;;13.63;86.56
51496;BME280;37572;52.094;4.870;2022-07-06T03:55:48;102580.06;;;13.62;86.73
51496;BME280;37572;52.094;4.870;2022-07-06T03:58:33;102573.63;;;13.63;86.89
51496;BME280;37572;52.094;4.870;2022-07-06T04:00:59;102573.06;;;13.68;87.10
51496;BME280;37572;52.094;4.870;2022-07-06T04:03:24;102567.47;;;13.69;87.19
51496;BME280;37572;52.094;4.870;2022-07-06T04:05:50;102568.94;;;13.72;86.86
51496;BME280;37572;52.094;4.870;2022-07-06T04:08:15;102578.13;;;13.71;87.32
51496;BME280;37572;52.094;4.870;2022-07-06T04:10:40;102575.41;;;13.71;87.11
51496;BME280;37572;52.094;4.870;2022-07-06T04:13:06;102580.44;;;13.74;87.01
51496;BME280;37572;52.094;4.870;2022-07-06T04:15:31;102588.47;;;13.82;86.31
51496;BME280;37572;52.094;4.870;2022-07-06T04:17:56;102577.44;;;13.84;85.65
51496;BME280;37572;52.094;4.870;2022-07-06T04:20:23;102585.84;;;13.89;85.01
51496;BME280;37572;52.094;4.870;2022-07-06T04:22:50;102582.41;;;13.95;84.22
51496;BME280;37572;52.094;4.870;2022-07-06T04:25:16;102585.56;;;13.99;83.94
51496;BME280;37572;52.094;4.870;2022-07-06T04:27:42;102572.06;;;14.05;83.30
51496;BME280;37572;52.094;4.870;2022-07-06T04:30:08;102582.53;;;14.08;82.76
51496;BME280;37572;52.094;4.870;2022-07-06T04:32:34;102583.28;;;14.02;82.56
51496;BME280;37572;52.094;4.870;2022-07-06T04:35:00;102575.72;;;14.13;82.36
51496;BME280;37572;52.094;4.870;2022-07-06T04:37:26;102577.91;;;14.24;82.01
51496;BME280;37572;52.094;4.870;2022-07-06T04:39:51;102579.41;;;14.26;82.11
51496;BME280;37572;52.094;4.870;2022-07-06T04:42:16;102576.53;;;14.28;82.77
51496;BME280;37572;52.094;4.870;2022-07-06T04:44:42;102574.72;;;14.35;82.92
51496;BME280;37572;52.094;4.870;2022-07-06T04:47:07;102576.88;;;14.40;82.79
51496;BME280;37572;52.094;4.870;2022-07-06T04:49:32;102581.72;;;14.44;82.28
51496;BME280;37572;52.094;4.870;2022-07-06T04:51:58;102576.72;;;14.48;82.85
51496;BME280;37572;52.094;4.870;2022-07-06T04:54:23;102581.97;;;14.50;82.63
51496;BME280;37572;52.094;4.870;2022-07-06T04:56:49;102586.56;;;14.49;82.87
51496;BME280;37572;52.094;4.870;2022-07-06T04:59:14;102589.91;;;14.51;82.61
51496;BME280;37572;52.094;4.870;2022-07-06T05:01:40;102588.50;;;14.55;82.73
51496;BME280;37572;52.094;4.870;2022-07-06T05:04:06;102594.53;;;14.57;82.80
51496;BME280;37572;52.094;4.870;2022-07-06T05:06:32;102591.59;;;14.52;83.57
51496;BME280;37572;52.094;4.870;2022-07-06T05:08:57;102593.91;;;14.55;83.54
51496;BME280;37572;52.094;4.870;2022-07-06T05:11:25;102593.16;;;14.61;83.46
51496;BME280;37572;52.094;4.870;2022-07-06T05:13:50;102594.47;;;14.66;83.39
51496;BME280;37572;52.094;4.870;2022-07-06T05:16:16;102597.25;;;14.72;83.44
51496;BME280;37572;52.094;4.870;2022-07-06T05:18:41;102598.34;;;14.78;83.69
51496;BME280;37572;52.094;4.870;2022-07-06T05:21:06;102604.06;;;14.90;83.46
51496;BME280;37572;52.094;4.870;2022-07-06T05:23:32;102605.16;;;14.95;83.40
51496;BME280;37572;52.094;4.870;2022-07-06T05:25:57;102611.88;;;15.00;83.05
51496;BME280;37572;52.094;4.870;2022-07-06T05:28:22;102615.47;;;15.07;83.15
51496;BME280;37572;52.094;4.870;2022-07-06T05:30:48;102615.88;;;15.25;82.49
51496;BME280;37572;52.094;4.870;2022-07-06T05:33:13;102615.53;;;15.42;81.35
51496;BME280;37572;52.094;4.870;2022-07-06T05:35:38;102614.72;;;15.76;81.00
51496;BME280;37572;52.094;4.870;2022-07-06T05:38:04;102618.00;;;16.00;80.08
51496;BME280;37572;52.094;4.870;2022-07-06T05:40:30;102617.06;;;16.21;77.94
51496;BME280;37572;52.094;4.870;2022-07-06T05:42:55;102611.94;;;16.53;77.14
51496;BME280;37572;52.094;4.870;2022-07-06T05:45:20;102620.34;;;16.65;76.14
51496;BME280;37572;52.094;4.870;2022-07-06T05:47:47;102608.00;;;16.82;76.42
51496;BME280;37572;52.094;4.870;2022-07-06T05:50:31;102614.75;;;17.06;76.55
51496;BME280;37572;52.094;4.870;2022-07-06T05:53:01;102610.56;;;17.17;76.14
51496;BME280;37572;52.094;4.870;2022-07-06T05:55:27;102617.63;;;17.58;76.55
51496;BME280;37572;52.094;4.870;2022-07-06T05:57:53;102619.81;;;18.08;74.30
51496;BME280;37572;52.094;4.870;2022-07-06T06:00:25;102628.38;;;18.57;72.17
51496;BME280;37572;52.094;4.870;2022-07-06T06:02:51;102618.09;;;18.91;70.33
51496;BME280;37572;52.094;4.870;2022-07-06T06:05:17;102625.50;;;19.09;68.47
51496;BME280;37572;52.094;4.870;2022-07-06T06:07:43;102626.59;;;19.77;68.21
51496;BME280;37572;52.094;4.870;2022-07-06T06:10:11;102637.25;;;20.34;64.04
51496;BME280;37572;52.094;4.870;2022-07-06T06:12:38;102639.31;;;20.81;61.91
51496;BME280;37572;52.094;4.870;2022-07-06T06:15:04;102631.88;;;21.24;59.12
51496;BME280;37572;52.094;4.870;2022-07-06T06:17:30;102631.06;;;21.82;59.71
51496;BME280;37572;52.094;4.870;2022-07-06T06:19:55;102628.38;;;22.40;56.42
51496;BME280;37572;52.094;4.870;2022-07-06T06:22:20;102630.81;;;23.33;53.12
51496;BME280;37572;52.094;4.870;2022-07-06T06:24:46;102634.81;;;24.03;47.97
51496;BME280;37572;52.094;4.870;2022-07-06T06:27:11;102637.25;;;24.00;48.61
51496;BME280;37572;52.094;4.870;2022-07-06T06:29:36;102638.69;;;24.30;46.72
51496;BME280;37572;52.094;4.870;2022-07-06T06:32:02;102648.00;;;24.24;44.20
51496;BME280;37572;52.094;4.870;2022-07-06T06:34:27;102641.50;;;24.35;44.25
51496;BME280;37572;52.094;4.870;2022-07-06T06:36:53;102641.09;;;24.70;46.00
51496;BME280;37572;52.094;4.870;2022-07-06T06:39:18;102646.00;;;25.01;46.03
51496;BME280;37572;52.094;4.870;2022-07-06T06:41:43;102640.25;;;25.35;42.80
51496;BME280;37572;52.094;4.870;2022-07-06T06:44:09;102642.78;;;25.09;41.98
51496;BME280;37572;52.094;4.870;2022-07-06T06:46:34;102649.16;;;25.52;43.30
51496;BME280;37572;52.094;4.870;2022-07-06T06:49:00;102642.50;;;25.48;42.52
51496;BME280;37572;52.094;4.870;2022-07-06T06:51:26;102641.56;;;25.80;43.10
51496;BME280;37572;52.094;4.870;2022-07-06T06:53:51;102644.81;;;26.20;40.68
51496;BME280;37572;52.094;4.870;2022-07-06T06:56:16;102648.41;;;26.30;39.28
51496;BME280;37572;52.094;4.870;2022-07-06T06:58:42;102648.75;;;26.60;40.44
51496;BME280;37572;52.094;4.870;2022-07-06T07:01:08;102641.34;;;26.91;40.21
51496;BME280;37572;52.094;4.870;2022-07-06T07:03:33;102644.09;;;26.86;38.61
51496;BME280;37572;52.094;4.870;2022-07-06T07:05:58;102641.88;;;26.98;37.83
51496;BME280;37572;52.094;4.870;2022-07-06T07:08:24;102647.41;;;27.39;39.72
51496;BME280;37572;52.094;4.870;2022-07-06T07:10:49;102650.75;;;27.00;37.09
51496;BME280;37572;52.094;4.870;2022-07-06T07:13:15;102651.56;;;26.91;37.97
51496;BME280;37572;52.094;4.870;2022-07-06T07:15:40;102647.69;;;26.97;36.77
51496;BME280;37572;52.094;4.870;2022-07-06T07:18:05;102644.34;;;25.80;36.98
51496;BME280;37572;52.094;4.870;2022-07-06T07:20:31;102637.59;;;26.13;41.03
51496;BME280;37572;52.094;4.870;2022-07-06T07:22:58;102640.97;;;26.36;37.20
51496;BME280;37572;52.094;4.870;2022-07-06T07:25:23;102643.19;;;25.71;39.88
51496;BME280;37572;52.094;4.870;2022-07-06T07:27:49;102647.38;;;26.57;39.99
51496;BME280;37572;52.094;4.870;2022-07-06T07:30:14;102646.59;;;26.98;37.60
51496;BME280;37572;52.094;4.870;2022-07-06T07:32:39;102650.16;;;27.39;38.21
51496;BME280;37572;52.094;4.870;2022-07-06T07:35:09;102645.56;;;27.90;36.59
51496;BME280;37572;52.094;4.870;2022-07-06T07:37:34;102641.34;;;28.18;35.90
51496;BME280;37572;52.094;4.870;2022-07-06T07:40:00;102645.22;;;28.17;35.30
51496;BME280;37572;52.094;4.870;2022-07-06T07:42:25;102639.94;;;27.40;38.41
51496;BME280;37572;52.094;4.870;2022-07-06T07:44:51;102632.41;;;27.61;37.17
51496;BME280;37572;52.094;4.870;2022-07-06T07:47:16;102638.25;;;27.29;34.88
51496;BME280;37572;52.094;4.870;2022-07-06T07:49:42;102643.22;;;27.47;37.75
51496;BME280;37572;52.094;4.870;2022-07-06T07:52:07;102641.06;;;27.34;37.29
51496;BME280;37572;52.094;4.870;2022-07-06T07:54:33;102643.06;;;25.98;38.62
51496;BME280;37572;52.094;4.870;2022-07-06T07:56:58;102641.91;;;25.03;41.60
51496;BME280;37572;52.094;4.870;2022-07-06T07:59:24;102631.63;;;24.93;41.76
51496;BME280;37572;52.094;4.870;2022-07-06T08:01:49;102632.53;;;25.04;42.50
51496;BME280;37572;52.094;4.870;2022-07-06T08:04:14;102630.91;;;24.76;42.78
51496;BME280;37572;52.094;4.870;2022-07-06T08:06:40;102627.56;;;24.19;42.90
51496;BME280;37572;52.094;4.870;2022-07-06T08:09:05;102626.72;;;23.53;42.77
51496;BME280;37572;52.094;4.870;2022-07-06T08:11:33;102626.47;;;22.86;41.98
51496;BME280;37572;52.094;4.870;2022-07-06T08:13:58;102621.88;;;22.58;44.03
51496;BME280;37572;52.094;4.870;2022-07-06T08:16:24;102619.94;;;22.58;44.44
51496;BME280;37572;52.094;4.870;2022-07-06T08:18:50;102621.88;;;22.58;46.43
51496;BME280;37572;52.094;4.870;2022-07-06T08:21:15;102619.84;;;22.53;47.79
51496;BME280;37572;52.094;4.870;2022-07-06T08:23:40;102616.81;;;22.67;45.86
51496;BME280;37572;52.094;4.870;2022-07-06T08:26:06;102624.81;;;22.68;45.20
51496;BME280;37572;52.094;4.870;2022-07-06T08:28:31;102617.66;;;22.38;42.96
51496;BME280;37572;52.094;4.870;2022-07-06T08:30:57;102609.00;;;22.18;45.86
51496;BME280;37572;52.094;4.870;2022-07-06T08:33:22;102614.59;;;22.23;47.93
51496;BME280;37572;52.094;4.870;2022-07-06T08:35:47;102615.34;;;22.47;47.28
51496;BME280;37572;52.094;4.870;2022-07-06T08:38:13;102610.19;;;21.81;41.57
51496;BME280;37572;52.094;4.870;2022-07-06T08:40:40;102613.88;;;22.16;44.44
51496;BME280;37572;52.094;4.870;2022-07-06T08:43:07;102615.09;;;22.49;45.47
51496;BME280;37572;52.094;4.870;2022-07-06T08:45:34;102612.56;;;22.76;46.99
51496;BME280;37572;52.094;4.870;2022-07-06T08:48:04;102616.06;;;23.05;46.13
51496;BME280;37572;52.094;4.870;2022-07-06T08:50:30;102615.28;;;23.22;44.59
51496;BME280;37572;52.094;4.870;2022-07-06T08:52:56;102617.00;;;23.28;47.05
51496;BME280;37572;52.094;4.870;2022-07-06T08:55:22;102609.16;;;22.86;45.02
51496;BME280;37572;52.094;4.870;2022-07-06T08:57:48;102612.41;;;23.00;46.33
51496;BME280;37572;52.094;4.870;2022-07-06T09:00:14;102608.84;;;22.36;43.70
51496;BME280;37572;52.094;4.870;2022-07-06T09:02:41;102607.47;;;21.34;41.48
51496;BME280;37572;52.094;4.870;2022-07-06T09:05:06;102611.63;;;21.48;44.51
51496;BME280;37572;52.094;4.870;2022-07-06T09:07:34;102604.72;;;21.22;45.92
51496;BME280;37572;52.094;4.870;2022-07-06T09:09:59;102618.44;;;21.34;45.05
51496;BME280;37572;52.094;4.870;2022-07-06T09:12:28;102608.91;;;21.36;45.29
51496;BME280;37572;52.094;4.870;2022-07-06T09:14:55;102609.38;;;21.57;47.18
51496;BME280;37572;52.094;4.870;2022-07-06T09:17:25;102607.72;;;21.68;43.96
51496;BME280;37572;52.094;4.870;2022-07-06T09:19:50;102605.34;;;21.60;43.45
51496;BME280;37572;52.094;4.870;2022-07-06T09:22:30;102608.75;;;21.90;45.32
51496;BME280;37572;52.094;4.870;2022-07-06T09:27:43;102610.00;;;22.12;46.56
51496;BME280;37572;52.094;4.870;2022-07-06T09:30:10;102617.06;;;21.96;44.19
51496;BME280;37572;52.094;4.870;2022-07-06T09:32:50;102616.25;;;22.24;45.96
51496;BME280;37572;52.094;4.870;2022-07-06T09:35:29;102616.63;;;22.16;44.22
51496;BME280;37572;52.094;4.870;2022-07-06T09:38:06;102618.00;;;22.01;44.64
51496;BME280;37572;52.094;4.870;2022-07-06T09:40:34;102618.56;;;22.15;47.51
51496;BME280;37572;52.094;4.870;2022-07-06T09:43:18;102630.41;;;22.44;45.63
51496;BME280;37572;52.094;4.870;2022-07-06T09:45:49;102634.41;;;22.54;45.11
51496;BME280;37572;52.094;4.870;2022-07-06T09:50:50;102628.06;;;22.82;45.83
51496;BME280;37572;52.094;4.870;2022-07-06T09:53:17;102626.69;;;22.68;42.52
51496;BME280;37572;52.094;4.870;2022-07-06T09:55:47;102626.66;;;22.51;40.92
51496;BME280;37572;52.094;4.870;2022-07-06T09:58:13;102626.13;;;22.37;42.74
51496;BME280;37572;52.094;4.870;2022-07-06T10:00:40;102617.38;;;22.69;44.79
51496;BME280;37572;52.094;4.870;2022-07-06T10:03:05;102630.13;;;22.92;46.36
51496;BME280;37572;52.094;4.870;2022-07-06T10:05:32;102627.63;;;22.90;42.66
51496;BME280;37572;52.094;4.870;2022-07-06T10:07:59;102627.22;;;22.82;41.39
51496;BME280;37572;52.094;4.870;2022-07-06T10:10:27;102624.63;;;22.92;44.46
51496;BME280;37572;52.094;4.870;2022-07-06T10:12:57;102624.09;;;23.24;44.34
51496;BME280;37572;52.094;4.870;2022-07-06T10:15:25;102617.28;;;23.48;42.87
51496;BME280;37572;52.094;4.870;2022-07-06T10:17:51;102615.06;;;23.67;43.06
51496;BME280;37572;52.094;4.870;2022-07-06T10:20:18;102619.94;;;23.82;43.90
51496;BME280;37572;52.094;4.870;2022-07-06T10:22:44;102619.50;;;23.68;43.53
51496;BME280;37572;52.094;4.870;2022-07-06T10:25:10;102621.88;;;23.82;44.40
51496;BME280;37572;52.094;4.870;2022-07-06T10:27:36;102622.44;;;23.84;43.63
51496;BME280;37572;52.094;4.870;2022-07-06T10:30:01;102613.78;;;23.14;40.36
51496;BME280;37572;52.094;4.870;2022-07-06T10:32:28;102609.53;;;23.23;43.47
51496;BME280;37572;52.094;4.870;2022-07-06T10:34:53;102613.72;;;22.63;39.38
51496;BME280;37572;52.094;4.870;2022-07-06T10:37:27;102613.16;;;22.95;41.45
51496;BME280;37572;52.094;4.870;2022-07-06T10:39:53;102607.84;;;23.05;41.67
51496;BME280;37572;52.094;4.870;2022-07-06T10:45:14;102604.84;;;22.73;40.07
51496;BME280;37572;52.094;4.870;2022-07-06T10:47:43;102606.22;;;22.58;42.20
51496;BME280;37572;52.094;4.870;2022-07-06T10:50:10;102611.28;;;22.50;43.19
51496;BME280;37572;52.094;4.870;2022-07-06T10:52:52;102603.94;;;22.26;42.10
51496;BME280;37572;52.094;4.870;2022-07-06T10:55:33;102597.47;;;22.44;43.68
51496;BME280;37572;52.094;4.870;2022-07-06T10:58:00;102602.22;;;22.49;43.57
51496;BME280;37572;52.094;4.870;2022-07-06T11:00:25;102610.22;;;22.68;41.51
51496;BME280;37572;52.094;4.870;2022-07-06T11:02:51;102598.47;;;22.55;41.70
51496;BME280;37572;52.094;4.870;2022-07-06T11:05:42;102593.22;;;22.54;39.54
51496;BME280;37572;52.094;4.870;2022-07-06T11:08:10;102579.38;;;22.60;40.94
51496;BME280;37572;52.094;4.870;2022-07-06T11:10:48;102580.88;;;22.85;41.86
51496;BME280;37572;52.094;4.870;2022-07-06T11:13:29;102579.94;;;23.13;39.40
51496;BME280;37572;52.094;4.870;2022-07-06T11:16:01;102576.53;;;22.89;37.83
51496;BME280;37572;52.094;4.870;2022-07-06T11:18:28;102565.28;;;22.57;37.94
51496;BME280;37572;52.094;4.870;2022-07-06T11:21:23;102563.63;;;22.39;38.32
51496;BME280;37572;52.094;4.870;2022-07-06T11:23:56;102569.28;;;22.66;40.14
51496;BME280;37572;52.094;4.870;2022-07-06T11:26:22;102574.13;;;22.93;42.59
51496;BME280;37572;52.094;4.870;2022-07-06T11:28:47;102571.44;;;22.98;40.09
51496;BME280;37572;52.094;4.870;2022-07-06T11:31:14;102569.53;;;23.32;41.59
51496;BME280;37572;52.094;4.870;2022-07-06T11:33:40;102560.25;;;23.61;41.39
51496;BME280;37572;52.094;4.870;2022-07-06T11:36:12;102563.25;;;23.37;38.87
51496;BME280;37572;52.094;4.870;2022-07-06T11:38:37;102551.00;;;23.45;41.70
51496;BME280;37572;52.094;4.870;2022-07-06T11:41:03;102543.91;;;23.71;43.87
51496;BME280;37572;52.094;4.870;2022-07-06T11:43:28;102545.06;;;23.75;39.79
51496;BME280;37572;52.094;4.870;2022-07-06T11:45:53;102543.38;;;23.96;38.70
51496;BME280;37572;52.094;4.870;2022-07-06T11:48:18;102547.50;;;23.94;38.63
51496;BME280;37572;52.094;4.870;2022-07-06T11:50:57;102548.19;;;24.06;36.85
51496;BME280;37572;52.094;4.870;2022-07-06T11:53:22;102552.47;;;23.97;38.63
51496;BME280;37572;52.094;4.870;2022-07-06T11:55:48;102545.19;;;23.85;37.81
51496;BME280;37572;52.094;4.870;2022-07-06T11:58:13;102538.53;;;23.81;37.92
51496;BME280;37572;52.094;4.870;2022-07-06T12:00:39;102541.31;;;24.36;41.08
51496;BME280;37572;52.094;4.870;2022-07-06T12:03:04;102537.69;;;24.95;42.33
51496;BME280;37572;52.094;4.870;2022-07-06T12:05:31;102536.81;;;25.32;40.16
51496;BME280;37572;52.094;4.870;2022-07-06T12:08:06;102547.91;;;25.42;36.49
51496;BME280;37572;52.094;4.870;2022-07-06T12:10:34;102544.44;;;25.20;35.82
51496;BME280;37572;52.094;4.870;2022-07-06T12:13:04;102553.91;;;25.29;36.73
51496;BME280;37572;52.094;4.870;2022-07-06T12:15:30;102541.25;;;25.38;38.79
51496;BME280;37572;52.094;4.870;2022-07-06T12:17:55;102545.97;;;25.48;38.78
51496;BME280;37572;52.094;4.870;2022-07-06T12:20:20;102540.00;;;24.76;35.90
51496;BME280;37572;52.094;4.870;2022-07-06T12:22:46;102535.41;;;24.54;36.03
51496;BME280;37572;52.094;4.870;2022-07-06T12:25:11;102523.00;;;24.84;37.32
51496;BME280;37572;52.094;4.870;2022-07-06T12:27:36;102517.44;;;24.79;36.44
51496;BME280;37572;52.094;4.870;2022-07-06T12:30:09;102516.06;;;24.77;36.63
51496;BME280;37572;52.094;4.870;2022-07-06T12:32:35;102520.53;;;24.88;38.68
51496;BME280;37572;52.094;4.870;2022-07-06T12:35:08;102511.47;;;24.55;36.96
51496;BME280;37572;52.094;4.870;2022-07-06T12:37:34;102513.72;;;24.31;37.73
51496;BME280;37572;52.094;4.870;2022-07-06T12:40:00;102512.19;;;24.45;37.76
51496;BME280;37572;52.094;4.870;2022-07-06T12:42:26;102510.50;;;24.71;38.16
51496;BME280;37572;52.094;4.870;2022-07-06T12:44:52;102503.63;;;24.69;38.55
51496;BME280;37572;52.094;4.870;2022-07-06T12:47:22;102517.06;;;24.65;38.77
51496;BME280;37572;52.094;4.870;2022-07-06T12:50:03;102507.44;;;24.68;39.00
51496;BME280;37572;52.094;4.870;2022-07-06T12:52:29;102510.84;;;24.80;41.13
51496;BME280;37572;52.094;4.870;2022-07-06T12:54:54;102505.88;;;24.77;41.14
51496;BME280;37572;52.094;4.870;2022-07-06T12:57:21;102504.50;;;24.80;39.28